<?xml version="1.0" encoding="utf-8"?>
<gpx xmlns:xsi="http://www.w3.org/2001/XMLSchema-instance" xmlns:xsd="http://www.w3.org/2001/XMLSchema" version="1.1" creator="Shapelink.com" xmlns="http://www.topografix.com/GPX/1/1" xmlns:gpxtpx="http://www.garmin.com/xmlschemas/TrackPointExtension/v1">
  <metadata>
    <name>Övrigt 2.45 km, 2020-08-15</name>
    <desc></desc>
    <author><name>Marian Moron</name></author> 
    <time>2020-08-15T19:41:21Z</time>
  </metadata>
  <trk>
    <name>Övrigt 2.45 km, 2020-08-15</name>
    <trkseg>
      <trkpt lat="51.229856550913" lon="4.457999178018">
        <ele>0</ele>
        <time>2020-08-15T19:41:21Z</time>
      </trkpt>
      <trkpt lat="51.230024524189" lon="4.45868045885">
        <ele>2.2</ele>
        <time>2020-08-15T19:42:05Z</time>
      </trkpt>
      <trkpt lat="51.230010694054" lon="4.458911296376">
        <ele>0</ele>
        <time>2020-08-15T19:42:29Z</time>
      </trkpt>
      <trkpt lat="51.229735600096" lon="4.459096452547">
        <ele>0</ele>
        <time>2020-08-15T19:42:59Z</time>
      </trkpt>
      <trkpt lat="51.229293873966" lon="4.459187982895">
        <ele>0</ele>
        <time>2020-08-15T19:43:43Z</time>
      </trkpt>
      <trkpt lat="51.22926587842" lon="4.459196700071">
        <ele>0</ele>
        <time>2020-08-15T19:43:46Z</time>
      </trkpt>
      <trkpt lat="51.229142245395" lon="4.45923114968">
        <ele>0</ele>
        <time>2020-08-15T19:44:03Z</time>
      </trkpt>
      <trkpt lat="51.228857596071" lon="4.45923701701">
        <ele>0</ele>
        <time>2020-08-15T19:44:49Z</time>
      </trkpt>
      <trkpt lat="51.22856431339" lon="4.459343718597">
        <ele>0</ele>
        <time>2020-08-15T19:45:42Z</time>
      </trkpt>
      <trkpt lat="51.22850731647" lon="4.459416808765">
        <ele>0</ele>
        <time>2020-08-15T19:45:50Z</time>
      </trkpt>
      <trkpt lat="51.2283790734" lon="4.459864737501">
        <ele>0</ele>
        <time>2020-08-15T19:46:40Z</time>
      </trkpt>
      <trkpt lat="51.228328446724" lon="4.460001865385">
        <ele>0</ele>
        <time>2020-08-15T19:46:52Z</time>
      </trkpt>
      <trkpt lat="51.228261307705" lon="4.460355916841">
        <ele>0.8</ele>
        <time>2020-08-15T19:47:29Z</time>
      </trkpt>
      <trkpt lat="51.228471525757" lon="4.460901075617">
        <ele>4.4</ele>
        <time>2020-08-15T19:48:11Z</time>
      </trkpt>
      <trkpt lat="51.22851653656" lon="4.461045914849">
        <ele>4</ele>
        <time>2020-08-15T19:48:23Z</time>
      </trkpt>
      <trkpt lat="51.228709739355" lon="4.461167620037">
        <ele>2.2</ele>
        <time>2020-08-15T19:48:46Z</time>
      </trkpt>
      <trkpt lat="51.228988940444" lon="4.461334336028">
        <ele>0</ele>
        <time>2020-08-15T19:49:15Z</time>
      </trkpt>
      <trkpt lat="51.22906387463" lon="4.461534160524">
        <ele>0</ele>
        <time>2020-08-15T19:49:47Z</time>
      </trkpt>
      <trkpt lat="51.229283983324" lon="4.461466770048">
        <ele>15</ele>
        <time>2020-08-15T19:50:32Z</time>
      </trkpt>
      <trkpt lat="51.229738030847" lon="4.461517899638">
        <ele>0</ele>
        <time>2020-08-15T19:51:21Z</time>
      </trkpt>
      <trkpt lat="51.229912625824" lon="4.46164429869">
        <ele>0</ele>
        <time>2020-08-15T19:51:42Z</time>
      </trkpt>
      <trkpt lat="51.229958726274" lon="4.461725016387">
        <ele>0</ele>
        <time>2020-08-15T19:51:49Z</time>
      </trkpt>
      <trkpt lat="51.229995774272" lon="4.461958117026">
        <ele>0</ele>
        <time>2020-08-15T19:52:08Z</time>
      </trkpt>
      <trkpt lat="51.230044724568" lon="4.462061633491">
        <ele>0</ele>
        <time>2020-08-15T19:52:15Z</time>
      </trkpt>
      <trkpt lat="51.230198364795" lon="4.462135058935">
        <ele>0.4</ele>
        <time>2020-08-15T19:52:34Z</time>
      </trkpt>
      <trkpt lat="51.23008814281" lon="4.462246538205">
        <ele>0</ele>
        <time>2020-08-15T19:52:51Z</time>
      </trkpt>
      <trkpt lat="51.230101889126" lon="4.462399759337">
        <ele>0</ele>
        <time>2020-08-15T19:53:02Z</time>
      </trkpt>
      <trkpt lat="51.230299450509" lon="4.46307425083">
        <ele>1</ele>
        <time>2020-08-15T19:53:46Z</time>
      </trkpt>
      <trkpt lat="51.230358123809" lon="4.463249264902">
        <ele>0.6</ele>
        <time>2020-08-15T19:53:55Z</time>
      </trkpt>
      <trkpt lat="51.230376228713" lon="4.463343645096">
        <ele>1.2</ele>
        <time>2020-08-15T19:54:00Z</time>
      </trkpt>
      <trkpt lat="51.230554763183" lon="4.464006150472">
        <ele>0</ele>
        <time>2020-08-15T19:54:35Z</time>
      </trkpt>
      <trkpt lat="51.23064721554" lon="4.464414600459">
        <ele>11.2</ele>
        <time>2020-08-15T19:55:07Z</time>
      </trkpt>
      <trkpt lat="51.230813428617" lon="4.465065371175">
        <ele>5.2</ele>
        <time>2020-08-15T19:55:46Z</time>
      </trkpt>
      <trkpt lat="51.230820888508" lon="4.465325880627">
        <ele>1.4</ele>
        <time>2020-08-15T19:55:59Z</time>
      </trkpt>
      <trkpt lat="51.230823822173" lon="4.465692169657">
        <ele>12.8</ele>
        <time>2020-08-15T19:56:28Z</time>
      </trkpt>
      <trkpt lat="51.230821642879" lon="4.466182846083">
        <ele>3.8</ele>
        <time>2020-08-15T19:56:54Z</time>
      </trkpt>
      <trkpt lat="51.230790126935" lon="4.46689220628">
        <ele>4.2</ele>
        <time>2020-08-15T19:57:39Z</time>
      </trkpt>
      <trkpt lat="51.230774788058" lon="4.466957166005">
        <ele>1.6</ele>
        <time>2020-08-15T19:57:44Z</time>
      </trkpt>
      <trkpt lat="51.23081736811" lon="4.467222034045">
        <ele>0</ele>
        <time>2020-08-15T19:58:04Z</time>
      </trkpt>
      <trkpt lat="51.230869084433" lon="4.467191607748">
        <ele>0</ele>
        <time>2020-08-15T19:58:11Z</time>
      </trkpt>
      <trkpt lat="51.231171503385" lon="4.467162354917">
        <ele>0</ele>
        <time>2020-08-15T19:58:34Z</time>
      </trkpt>
      <trkpt lat="51.231239396775" lon="4.46708582817">
        <ele>0</ele>
        <time>2020-08-15T19:58:42Z</time>
      </trkpt>
      <trkpt lat="51.231521280072" lon="4.466516864798">
        <ele>4.2</ele>
        <time>2020-08-15T19:59:33Z</time>
      </trkpt>
      <trkpt lat="51.231721188387" lon="4.465859640019">
        <ele>9.6</ele>
        <time>2020-08-15T20:00:19Z</time>
      </trkpt>
      <trkpt lat="51.231938195778" lon="4.46546728328">
        <ele>13.4</ele>
        <time>2020-08-15T20:00:47Z</time>
      </trkpt>
      <trkpt lat="51.232067863771" lon="4.46519319515">
        <ele>10.8</ele>
        <time>2020-08-15T20:01:05Z</time>
      </trkpt>
      <trkpt lat="51.232136260075" lon="4.465113650919">
        <ele>6.6</ele>
        <time>2020-08-15T20:01:12Z</time>
      </trkpt>
      <trkpt lat="51.232146988907" lon="4.465081464423">
        <ele>4.8</ele>
        <time>2020-08-15T20:01:15Z</time>
      </trkpt>
      <trkpt lat="51.232289062112" lon="4.464711571176">
        <ele>8.2</ele>
        <time>2020-08-15T20:01:42Z</time>
      </trkpt>
      <trkpt lat="51.232448150574" lon="4.464275544738">
        <ele>2.8</ele>
        <time>2020-08-15T20:02:16Z</time>
      </trkpt>
      <trkpt lat="51.232479750337" lon="4.464176722137">
        <ele>3</ele>
        <time>2020-08-15T20:02:22Z</time>
      </trkpt>
      <trkpt lat="51.232497268508" lon="4.46405577132">
        <ele>2</ele>
        <time>2020-08-15T20:02:31Z</time>
      </trkpt>
      <trkpt lat="51.232519061448" lon="4.463981423867">
        <ele>1.8</ele>
        <time>2020-08-15T20:02:37Z</time>
      </trkpt>
      <trkpt lat="51.232553930152" lon="4.463850833865">
        <ele>2</ele>
        <time>2020-08-15T20:02:48Z</time>
      </trkpt>
      <trkpt lat="51.232406324893" lon="4.463164859169">
        <ele>6.6</ele>
        <time>2020-08-15T20:03:32Z</time>
      </trkpt>
      <trkpt lat="51.232374976587" lon="4.463073831735">
        <ele>8</ele>
        <time>2020-08-15T20:03:38Z</time>
      </trkpt>
      <trkpt lat="51.232110527642" lon="4.462956401316">
        <ele>0.2</ele>
        <time>2020-08-15T20:05:52Z</time>
      </trkpt>
      <trkpt lat="51.232101894285" lon="4.463105515317">
        <ele>0</ele>
        <time>2020-08-15T20:06:12Z</time>
      </trkpt>
      <trkpt lat="51.232038778578" lon="4.463015158435">
        <ele>0</ele>
        <time>2020-08-15T20:06:40Z</time>
      </trkpt>
      <trkpt lat="51.232053949817" lon="4.46278758985">
        <ele>0</ele>
        <time>2020-08-15T20:07:00Z</time>
      </trkpt>
      <trkpt lat="51.232056799663" lon="4.462629674854">
        <ele>0</ele>
        <time>2020-08-15T20:07:12Z</time>
      </trkpt>
      <trkpt lat="51.232149335839" lon="4.462026429511">
        <ele>0</ele>
        <time>2020-08-15T20:07:56Z</time>
      </trkpt>
      <trkpt lat="51.231992426671" lon="4.461420585779">
        <ele>0</ele>
        <time>2020-08-15T20:08:44Z</time>
      </trkpt>
      <trkpt lat="51.231944566022" lon="4.461264682439">
        <ele>0</ele>
        <time>2020-08-15T20:08:56Z</time>
      </trkpt>
      <trkpt lat="51.231883461971" lon="4.460553226767">
        <ele>0</ele>
        <time>2020-08-15T20:09:38Z</time>
      </trkpt>
      <trkpt lat="51.231872733139" lon="4.460500756073">
        <ele>0</ele>
        <time>2020-08-15T20:09:42Z</time>
      </trkpt>
      <trkpt lat="51.231834511675" lon="4.460236055671">
        <ele>0</ele>
        <time>2020-08-15T20:10:04Z</time>
      </trkpt>
      <trkpt lat="51.231710962469" lon="4.459542788722">
        <ele>0</ele>
        <time>2020-08-15T20:10:45Z</time>
      </trkpt>
      <trkpt lat="51.231618174836" lon="4.459098464203">
        <ele>0</ele>
        <time>2020-08-15T20:12:16Z</time>
      </trkpt>
      <trkpt lat="51.231580456286" lon="4.458913643308">
        <ele>0</ele>
        <time>2020-08-15T20:12:34Z</time>
      </trkpt>
      <trkpt lat="51.231391695898" lon="4.458477700689">
        <ele>0</ele>
        <time>2020-08-15T20:13:36Z</time>
      </trkpt>
      <trkpt lat="51.231296561333" lon="4.45857400872">
        <ele>0</ele>
        <time>2020-08-15T20:13:49Z</time>
      </trkpt>
      <trkpt lat="51.231224057898" lon="4.458621701731">
        <ele>0</ele>
        <time>2020-08-15T20:13:58Z</time>
      </trkpt>
      <trkpt lat="51.231098580855" lon="4.458688924569">
        <ele>0</ele>
        <time>2020-08-15T20:14:24Z</time>
      </trkpt>
      <trkpt lat="51.230658195829" lon="4.458823454064">
        <ele>0</ele>
        <time>2020-08-15T20:15:10Z</time>
      </trkpt>
      <trkpt lat="51.230492485666" lon="4.459237268467">
        <ele>0.8</ele>
        <time>2020-08-15T20:16:16Z</time>
      </trkpt>
      <trkpt lat="51.230391064676" lon="4.459139870789">
        <ele>0</ele>
        <time>2020-08-15T20:17:00Z</time>
      </trkpt>
      <trkpt lat="51.230380838758" lon="4.459098967117">
        <ele>0</ele>
        <time>2020-08-15T20:17:03Z</time>
      </trkpt>
      <trkpt lat="51.230306826581" lon="4.458934765696">
        <ele>0</ele>
        <time>2020-08-15T20:17:19Z</time>
      </trkpt>
      <trkpt lat="51.230041874722" lon="4.45892521033">
        <ele>0</ele>
        <time>2020-08-15T20:17:57Z</time>
      </trkpt>
      <trkpt lat="51.229918241697" lon="4.459064014594">
        <ele>0</ele>
        <time>2020-08-15T20:18:24Z</time>
      </trkpt>
      <trkpt lat="51.229473246626" lon="4.459146995404">
        <ele>0</ele>
        <time>2020-08-15T20:19:16Z</time>
      </trkpt>
      <trkpt lat="51.229034035066" lon="4.45926719185">
        <ele>0</ele>
        <time>2020-08-15T20:20:10Z</time>
      </trkpt>
      <trkpt lat="51.228928255488" lon="4.459218241554">
        <ele>0</ele>
        <time>2020-08-15T20:20:23Z</time>
      </trkpt>
      <trkpt lat="51.228585603416" lon="4.4592881466">
        <ele>0</ele>
        <time>2020-08-15T20:21:08Z</time>
      </trkpt>
      <trkpt lat="51.22855341692" lon="4.459232993698">
        <ele>0</ele>
        <time>2020-08-15T20:21:13Z</time>
      </trkpt>
      <trkpt lat="51.228490468851" lon="4.458769642266">
        <ele>0</ele>
        <time>2020-08-15T20:21:49Z</time>
      </trkpt>
      <trkpt lat="51.228511004506" lon="4.458289694672">
        <ele>0</ele>
        <time>2020-08-15T20:22:58Z</time>
      </trkpt>
      <trkpt lat="51.22860035556" lon="4.458142173232">
        <ele>1.4</ele>
        <time>2020-08-15T20:23:17Z</time>
      </trkpt>
      <trkpt lat="51.228848124524" lon="4.458165139638">
        <ele>6.6</ele>
        <time>2020-08-15T20:23:59Z</time>
      </trkpt>
      <trkpt lat="51.229059180766" lon="4.458135970626">
        <ele>12.6</ele>
        <time>2020-08-15T20:24:46Z</time>
      </trkpt>
      <trkpt lat="51.2290915349" lon="4.458121050844">
        <ele>13.2</ele>
        <time>2020-08-15T20:24:50Z</time>
      </trkpt>
      <trkpt lat="51.229132438572" lon="4.458114429143">
        <ele>13.4</ele>
        <time>2020-08-15T20:24:55Z</time>
      </trkpt>
      <trkpt lat="51.229559664015" lon="4.457935559397">
        <ele>13.4</ele>
        <time>2020-08-15T20:25:51Z</time>
      </trkpt>
      <trkpt lat="51.229650523811" lon="4.457946372048">
        <ele>13.4</ele>
        <time>2020-08-15T20:26:08Z</time>
      </trkpt>
      <trkpt lat="51.229711879319" lon="4.457873784794">
        <ele>12.8</ele>
        <time>2020-08-15T20:26:50Z</time>
      </trkpt>
    </trkseg>
  </trk>
</gpx>